createdAt,value
2018-05-16T00:01:43.042Z,12.20
2018-05-16T00:04:16.960Z,12.20
2018-05-16T00:06:51.664Z,12.10
2018-05-16T00:09:25.574Z,12.10
2018-05-16T00:11:59.303Z,12.10
2018-05-16T00:14:33.526Z,12.20
2018-05-16T00:17:07.554Z,12.10
2018-05-16T00:19:41.976Z,12.00
2018-05-16T00:22:15.846Z,12.00
2018-05-16T00:24:49.830Z,12.00
2018-05-16T00:27:26.328Z,11.90
2018-05-16T00:30:00.113Z,11.80
2018-05-16T00:32:33.934Z,11.80
2018-05-16T00:35:08.469Z,11.80
2018-05-16T00:37:43.470Z,11.80
2018-05-16T00:40:17.990Z,11.70
2018-05-16T00:42:51.796Z,11.70
2018-05-16T00:45:25.505Z,11.80
2018-05-16T00:48:00.239Z,11.90
2018-05-16T00:50:34.038Z,11.80
2018-05-16T00:53:09.264Z,11.90
2018-05-16T00:55:44.527Z,11.90
2018-05-16T00:58:18.951Z,11.90
2018-05-16T01:00:53.659Z,11.90
2018-05-16T01:03:27.776Z,11.80
2018-05-16T01:06:02.398Z,11.80
2018-05-16T01:08:36.827Z,11.90
2018-05-16T01:11:10.643Z,11.90
2018-05-16T01:13:45.551Z,11.90
2018-05-16T01:16:20.667Z,11.90
2018-05-16T01:18:55.609Z,11.90
2018-05-16T01:21:29.418Z,11.90
2018-05-16T01:24:03.959Z,11.90
2018-05-16T01:26:39.674Z,11.90
2018-05-16T01:29:13.498Z,11.90
2018-05-16T01:31:47.619Z,11.80
2018-05-16T01:34:21.516Z,11.80
2018-05-16T01:36:55.830Z,11.80
2018-05-16T01:39:30.470Z,11.80
2018-05-16T01:42:04.267Z,11.70
2018-05-16T01:44:38.576Z,11.80
2018-05-16T01:47:13.631Z,11.80
2018-05-16T01:49:48.538Z,11.80
2018-05-16T01:52:23.547Z,11.90
2018-05-16T01:54:57.291Z,11.90
2018-05-16T01:57:31.067Z,11.90
2018-05-16T02:00:04.975Z,11.90
2018-05-16T02:02:39.415Z,11.90
2018-05-16T02:05:13.738Z,11.90
2018-05-16T02:07:47.655Z,11.80
2018-05-16T02:10:21.963Z,11.80
2018-05-16T02:12:56.556Z,11.80
2018-05-16T02:15:31.091Z,11.90
2018-05-16T02:18:05.200Z,11.80
2018-05-16T02:20:39.242Z,11.70
2018-05-16T02:23:12.936Z,11.80
2018-05-16T02:25:46.838Z,11.80
2018-05-16T02:28:20.727Z,11.80
2018-05-16T02:30:54.417Z,11.80
2018-05-16T02:33:28.123Z,11.70
2018-05-16T02:36:02.975Z,11.70
2018-05-16T02:38:37.607Z,11.70
2018-05-16T02:41:11.294Z,11.80
2018-05-16T02:43:45.627Z,11.90
2018-05-16T02:46:19.215Z,11.90
2018-05-16T02:48:53.708Z,11.80
2018-05-16T02:51:27.536Z,11.80
2018-05-16T02:54:02.343Z,11.80
2018-05-16T02:56:36.384Z,11.80
2018-05-16T02:59:11.392Z,11.80
2018-05-16T03:01:46.525Z,11.70
2018-05-16T03:04:20.234Z,11.80
2018-05-16T03:06:54.667Z,11.70
2018-05-16T03:09:28.656Z,11.70
2018-05-16T03:12:02.381Z,11.60
2018-05-16T03:14:37.292Z,11.50
2018-05-16T03:17:11.003Z,11.50
2018-05-16T03:19:44.722Z,11.40
2018-05-16T03:22:19.878Z,11.50
2018-05-16T03:24:54.155Z,11.60
2018-05-16T03:27:28.906Z,11.50
2018-05-16T03:30:03.799Z,11.40
2018-05-16T03:32:38.544Z,11.40
2018-05-16T03:35:13.875Z,11.30
2018-05-16T03:37:48.003Z,11.30
2018-05-16T03:40:22.475Z,11.30
2018-05-16T03:42:56.258Z,11.30
2018-05-16T03:45:30.216Z,11.40
2018-05-16T03:48:03.961Z,11.30
2018-05-16T03:50:38.029Z,11.30
2018-05-16T03:53:11.941Z,11.30
2018-05-16T03:55:46.279Z,11.30
2018-05-16T03:58:32.056Z,11.30
2018-05-16T04:01:18.440Z,11.30
2018-05-16T04:04:04.736Z,11.30
2018-05-16T04:06:39.691Z,11.30
2018-05-16T04:09:13.903Z,11.30
2018-05-16T04:11:49.233Z,11.40
2018-05-16T04:14:23.738Z,11.40
2018-05-16T04:16:58.471Z,11.50
2018-05-16T04:19:33.197Z,11.40
2018-05-16T04:22:07.070Z,11.40
2018-05-16T04:24:42.884Z,11.40
2018-05-16T04:27:16.787Z,11.40
2018-05-16T04:29:50.687Z,11.30
2018-05-16T04:32:25.196Z,11.30
2018-05-16T04:34:59.325Z,11.30
2018-05-16T04:37:34.024Z,11.40
2018-05-16T04:40:08.581Z,11.50
2018-05-16T04:42:43.171Z,11.40
2018-05-16T04:45:17.899Z,11.50
2018-05-16T04:47:52.647Z,11.50
2018-05-16T04:50:27.057Z,11.40
2018-05-16T04:53:00.867Z,11.40
2018-05-16T04:55:34.833Z,11.50
2018-05-16T04:58:08.975Z,11.40
2018-05-16T05:00:43.546Z,11.20
2018-05-16T05:03:17.400Z,11.20
2018-05-16T05:05:52.143Z,11.20
2018-05-16T05:08:26.871Z,11.20
2018-05-16T05:11:01.477Z,11.20
2018-05-16T05:13:35.177Z,11.30
2018-05-16T05:16:09.299Z,11.30
2018-05-16T05:18:44.007Z,11.60
2018-05-16T05:21:17.716Z,11.60
2018-05-16T05:23:52.459Z,11.70
2018-05-16T05:26:26.452Z,11.60
2018-05-16T05:29:01.404Z,11.80
2018-05-16T05:31:35.015Z,11.80
2018-05-16T05:34:09.847Z,11.80
2018-05-16T05:36:44.325Z,11.80
2018-05-16T05:39:18.037Z,11.80
2018-05-16T05:41:52.945Z,11.80
2018-05-16T05:44:26.888Z,11.70
2018-05-16T05:47:02.030Z,11.80
2018-05-16T05:49:35.940Z,11.80
2018-05-16T05:52:10.247Z,11.80
2018-05-16T05:54:43.955Z,11.80
2018-05-16T05:57:17.950Z,11.70
2018-05-16T05:59:52.282Z,11.80
2018-05-16T06:02:26.564Z,11.80
2018-05-16T06:05:01.393Z,11.80
2018-05-16T06:07:35.930Z,12.10
2018-05-16T06:10:11.173Z,12.10
2018-05-16T06:12:46.354Z,12.10
2018-05-16T06:15:22.043Z,12.20
2018-05-16T06:17:55.770Z,12.20
2018-05-16T06:20:31.503Z,12.10
2018-05-16T06:23:06.132Z,12.00
2018-05-16T06:25:40.846Z,12.00
2018-05-16T06:28:14.559Z,12.00
2018-05-16T06:30:49.400Z,12.00
2018-05-16T06:33:24.000Z,12.10
2018-05-16T06:35:58.947Z,12.10
2018-05-16T06:38:32.963Z,12.00
2018-05-16T06:41:07.457Z,12.00
2018-05-16T06:43:43.117Z,12.00
2018-05-16T06:46:18.445Z,12.10
2018-05-16T06:48:52.227Z,12.00
2018-05-16T06:51:26.198Z,12.10
2018-05-16T06:54:01.820Z,12.20
2018-05-16T06:56:35.513Z,12.20
2018-05-16T06:59:10.752Z,12.20
2018-05-16T07:01:44.350Z,12.20
2018-05-16T07:04:19.492Z,12.20
2018-05-16T07:06:54.108Z,12.30
2018-05-16T07:09:30.912Z,12.40
2018-05-16T07:12:04.788Z,12.40
2018-05-16T07:14:39.636Z,12.60
2018-05-16T07:17:13.650Z,12.70
2018-05-16T07:19:48.377Z,12.70
2018-05-16T07:22:22.385Z,12.70
2018-05-16T07:24:56.173Z,12.80
2018-05-16T07:27:30.807Z,12.50
2018-05-16T07:30:04.624Z,12.50
2018-05-16T07:45:26.087Z,12.80
2018-05-16T07:48:00.531Z,12.80
2018-05-16T07:50:34.213Z,12.80
2018-05-16T07:53:07.942Z,12.90
2018-05-16T07:55:42.872Z,12.70
2018-05-16T07:58:16.574Z,12.70
2018-05-16T08:00:50.174Z,12.60
2018-05-16T08:03:24.370Z,12.50
2018-05-16T08:05:59.091Z,12.40
2018-05-16T08:08:32.717Z,12.40
2018-05-16T08:11:08.338Z,12.30
2018-05-16T08:13:42.047Z,12.30
2018-05-16T08:16:15.946Z,12.30
2018-05-16T08:18:50.891Z,12.40
2018-05-16T08:21:25.340Z,12.40
2018-05-16T08:23:59.936Z,12.40
2018-05-16T08:26:33.620Z,12.30
2018-05-16T08:29:08.247Z,12.30
2018-05-16T08:31:42.791Z,12.30
2018-05-16T08:34:17.415Z,12.30
2018-05-16T08:36:51.280Z,12.30
2018-05-16T08:39:25.014Z,12.30
2018-05-16T08:41:59.339Z,12.10
2018-05-16T08:44:33.854Z,12.00
2018-05-16T08:47:08.460Z,11.90
2018-05-16T08:49:42.895Z,11.80
2018-05-16T08:52:16.790Z,11.80
2018-05-16T08:54:52.160Z,11.70
2018-05-16T08:57:26.563Z,11.70
2018-05-16T09:00:01.180Z,11.70
2018-05-16T09:02:34.988Z,11.80
2018-05-16T09:05:08.779Z,11.90
2018-05-16T09:07:43.325Z,12.10
2018-05-16T09:10:17.739Z,12.10
2018-05-16T09:12:51.851Z,12.10
2018-05-16T09:15:25.950Z,12.20
2018-05-16T09:18:00.490Z,12.20
2018-05-16T09:20:34.082Z,12.30
2018-05-16T09:23:08.086Z,12.40
2018-05-16T09:25:42.706Z,12.50
2018-05-16T09:28:17.874Z,12.50
2018-05-16T09:30:51.733Z,12.50
2018-05-16T09:33:26.470Z,12.60
2018-05-16T09:36:01.830Z,12.60
2018-05-16T09:38:35.408Z,12.60
2018-05-16T09:41:09.743Z,12.30
2018-05-16T09:43:43.726Z,12.30
2018-05-16T09:46:18.067Z,12.20
2018-05-16T09:48:52.052Z,12.40
2018-05-16T09:51:25.927Z,12.70
2018-05-16T09:54:00.283Z,12.70
2018-05-16T09:56:34.927Z,12.80
2018-05-16T09:59:11.690Z,13.10
2018-05-16T10:01:45.595Z,13.10
2018-05-16T10:04:19.815Z,13.50
2018-05-16T10:06:54.212Z,14.20
2018-05-16T10:09:29.079Z,14.10
2018-05-16T10:12:03.666Z,13.90
2018-05-16T10:14:37.474Z,13.90
2018-05-16T10:17:11.711Z,14.00
2018-05-16T10:19:45.603Z,14.30
2018-05-16T10:22:20.936Z,14.20
2018-05-16T10:24:54.542Z,14.10
2018-05-16T10:27:29.990Z,14.60
2018-05-16T10:30:03.983Z,14.60
2018-05-16T10:32:38.814Z,15.50
2018-05-16T10:35:13.240Z,14.80
2018-05-16T10:37:47.579Z,15.10
2018-05-16T10:40:21.997Z,15.00
2018-05-16T10:42:55.698Z,15.00
2018-05-16T10:45:29.393Z,15.40
2018-05-16T10:48:03.700Z,15.50
2018-05-16T10:50:40.067Z,15.00
2018-05-16T10:53:13.882Z,15.00
2018-05-16T10:55:49.629Z,14.40
2018-05-16T10:58:24.153Z,14.30
2018-05-16T11:00:58.756Z,14.30
2018-05-16T11:03:33.481Z,13.90
2018-05-16T11:06:08.514Z,14.00
2018-05-16T11:08:42.322Z,14.00
2018-05-16T11:11:16.149Z,14.20
2018-05-16T11:13:50.971Z,13.80
2018-05-16T11:16:24.578Z,13.80
2018-05-16T11:18:59.332Z,13.90
2018-05-16T11:21:34.101Z,13.90
2018-05-16T11:24:11.212Z,13.80
2018-05-16T11:26:44.896Z,13.80
2018-05-16T11:29:20.104Z,14.20
2018-05-16T11:31:55.699Z,14.30
2018-05-16T11:34:30.011Z,14.30
2018-05-16T11:37:04.511Z,14.70
2018-05-16T11:39:38.531Z,14.80
2018-05-16T11:42:13.253Z,15.30
2018-05-16T11:44:47.971Z,15.60
2018-05-16T11:47:22.483Z,15.60
2018-05-16T11:49:56.219Z,16.30
2018-05-16T11:52:30.610Z,16.30
2018-05-16T11:55:04.915Z,16.10
2018-05-16T11:57:39.580Z,16.10
2018-05-16T12:00:16.984Z,15.90
2018-05-16T12:02:50.964Z,15.80
2018-05-16T12:05:25.907Z,15.10
2018-05-16T12:08:00.230Z,15.10
2018-05-16T12:10:34.317Z,15.40
2018-05-16T12:13:09.981Z,15.90
2018-05-16T12:15:45.403Z,15.80
2018-05-16T12:18:19.099Z,15.80
2018-05-16T12:20:54.284Z,15.80
2018-05-16T12:23:30.362Z,15.80
2018-05-16T12:26:04.820Z,16.70
2018-05-16T12:28:39.773Z,17.40
2018-05-16T12:31:13.462Z,17.40
2018-05-16T12:33:47.294Z,17.80
2018-05-16T12:36:20.880Z,17.80
2018-05-16T12:38:55.395Z,17.70
2018-05-16T12:41:29.493Z,17.70
2018-05-16T12:44:03.307Z,17.30
2018-05-16T12:46:38.078Z,17.60
2018-05-16T12:49:12.571Z,18.60
2018-05-16T12:51:46.230Z,18.60
2018-05-16T12:54:21.186Z,18.50
2018-05-16T12:56:56.952Z,17.30
2018-05-16T12:59:35.240Z,17.30
2018-05-16T13:02:10.770Z,16.40
2018-05-16T13:04:45.451Z,16.40
2018-05-16T13:07:20.745Z,16.40
2018-05-16T13:09:56.071Z,17.10
2018-05-16T13:12:33.221Z,17.10
2018-05-16T13:15:08.291Z,19.50
2018-05-16T13:17:42.816Z,19.50
2018-05-16T13:20:20.526Z,21.30
2018-05-16T13:22:55.057Z,21.30
2018-05-16T13:25:30.090Z,22.00
2018-05-16T13:28:03.875Z,22.00
2018-05-16T13:30:38.742Z,21.00
2018-05-16T13:33:12.708Z,21.00
2018-05-16T13:35:46.336Z,19.20
2018-05-16T13:38:21.360Z,17.90
2018-05-16T13:40:55.373Z,16.40
2018-05-16T13:43:31.324Z,15.60
2018-05-16T13:46:06.870Z,15.80
2018-05-16T13:48:41.978Z,16.30
2018-05-16T13:51:16.017Z,16.30
2018-05-16T13:53:51.534Z,17.00
2018-05-16T13:56:25.960Z,16.90
2018-05-16T13:59:00.154Z,16.90
2018-05-16T14:01:33.973Z,17.60
2018-05-16T14:04:08.946Z,18.70
2018-05-16T14:06:43.330Z,18.70
2018-05-16T14:09:17.353Z,18.60
2018-05-16T14:11:52.347Z,20.00
2018-05-16T14:14:27.506Z,20.30
2018-05-16T14:17:01.939Z,21.00
2018-05-16T14:19:35.547Z,21.00
2018-05-16T14:22:10.354Z,22.80
2018-05-16T14:24:44.048Z,22.80
2018-05-16T14:27:18.586Z,21.00
2018-05-16T14:29:52.199Z,21.00
2018-05-16T14:32:27.528Z,23.90
2018-05-16T14:35:03.261Z,24.70
2018-05-16T14:37:37.806Z,26.10
2018-05-16T14:40:11.490Z,26.00
2018-05-16T14:42:45.439Z,26.20
2018-05-16T14:45:19.194Z,25.10
2018-05-16T14:47:53.975Z,21.00
2018-05-16T14:50:28.754Z,20.30
2018-05-16T14:53:03.379Z,19.20
2018-05-16T14:55:39.131Z,18.80
2018-05-16T14:58:14.175Z,18.20
2018-05-16T15:00:49.225Z,17.90
2018-05-16T15:03:23.631Z,17.60
2018-05-16T15:05:57.619Z,17.60
2018-05-16T15:08:33.380Z,17.50
2018-05-16T15:11:08.221Z,17.20
2018-05-16T15:13:42.415Z,16.90
2018-05-16T15:16:17.238Z,16.60
2018-05-16T15:18:51.972Z,16.40
2018-05-16T15:21:25.675Z,16.30
2018-05-16T15:24:00.400Z,15.10
2018-05-16T15:26:34.210Z,15.00
2018-05-16T15:29:07.995Z,14.50
2018-05-16T15:31:42.438Z,13.60
2018-05-16T15:34:20.253Z,13.20
2018-05-16T15:36:54.245Z,13.20
2018-05-16T15:39:29.275Z,12.90
2018-05-16T15:42:03.266Z,12.90
2018-05-16T15:44:38.027Z,12.80
2018-05-16T15:47:11.593Z,12.70
2018-05-16T15:49:46.426Z,12.70
2018-05-16T15:52:21.147Z,12.70
2018-05-16T15:54:55.068Z,12.80
2018-05-16T15:57:30.092Z,12.70
2018-05-16T16:00:04.423Z,12.90
2018-05-16T16:02:39.881Z,13.10
2018-05-16T16:18:31.259Z,14.80
2018-05-16T16:21:06.303Z,15.20
2018-05-16T16:23:40.386Z,15.20
2018-05-16T16:39:01.727Z,16.10
2018-05-16T16:41:35.798Z,16.00
2018-05-16T16:44:10.923Z,16.50
2018-05-16T16:46:44.735Z,16.50
2018-05-16T16:49:19.028Z,17.90
2018-05-16T16:51:52.949Z,18.90
2018-05-16T16:54:28.211Z,17.40
2018-05-16T16:57:02.427Z,17.30
2018-05-16T16:59:36.348Z,16.50
2018-05-16T17:02:11.168Z,15.00
2018-05-16T17:04:44.943Z,15.00
2018-05-16T17:07:19.068Z,15.20
2018-05-16T17:09:53.195Z,14.40
2018-05-16T17:12:27.948Z,13.90
2018-05-16T17:15:02.643Z,13.80
2018-05-16T17:17:36.419Z,13.80
2018-05-16T17:20:11.911Z,13.90
2018-05-16T17:22:46.958Z,13.70
2018-05-16T17:25:22.059Z,14.00
2018-05-16T17:27:56.582Z,14.20
2018-05-16T17:30:31.389Z,14.40
2018-05-16T17:33:05.348Z,14.30
2018-05-16T17:35:39.840Z,14.50
2018-05-16T17:38:14.337Z,14.50
2018-05-16T17:40:48.329Z,14.50
2018-05-16T17:43:22.671Z,14.30
2018-05-16T17:45:57.152Z,14.40
2018-05-16T17:48:32.295Z,14.40
2018-05-16T17:51:06.132Z,14.40
2018-05-16T17:53:40.379Z,14.20
2018-05-16T17:56:14.272Z,13.70
2018-05-16T17:58:48.249Z,13.50
2018-05-16T18:01:23.075Z,13.10
2018-05-16T18:03:56.795Z,13.10
2018-05-16T18:06:30.518Z,13.00
2018-05-16T18:09:04.312Z,12.90
2018-05-16T18:11:38.385Z,12.90
2018-05-16T18:27:43.146Z,12.80
2018-05-16T18:30:17.234Z,12.60
2018-05-16T18:32:51.858Z,12.60
2018-05-16T18:35:26.179Z,12.60
2018-05-16T18:38:00.273Z,12.60
2018-05-16T18:40:34.701Z,12.40
2018-05-16T18:43:08.723Z,12.20
2018-05-16T18:45:42.823Z,12.20
2018-05-16T18:48:17.639Z,12.10
2018-05-16T18:50:52.804Z,12.10
2018-05-16T18:53:28.045Z,11.90
2018-05-16T18:56:04.175Z,11.90
2018-05-16T18:58:39.513Z,11.90
2018-05-16T19:01:13.311Z,11.90
2018-05-16T19:03:47.555Z,11.90
2018-05-16T19:06:22.963Z,11.70
2018-05-16T19:08:57.415Z,11.70
2018-05-16T19:11:32.189Z,11.60
2018-05-16T19:14:06.579Z,11.60
2018-05-16T19:16:41.467Z,11.40
2018-05-16T19:19:16.419Z,11.40
2018-05-16T19:21:50.627Z,11.30
2018-05-16T19:24:26.351Z,11.30
2018-05-16T19:27:03.868Z,11.30
2018-05-16T19:29:38.702Z,11.20
2018-05-16T19:32:13.590Z,11.20
2018-05-16T19:34:48.437Z,11.10
2018-05-16T19:37:22.444Z,11.00
2018-05-16T19:39:56.250Z,10.90
2018-05-16T19:42:31.199Z,10.90
2018-05-16T19:45:05.720Z,11.00
2018-05-16T19:47:41.567Z,11.00
2018-05-16T19:50:17.130Z,11.00
2018-05-16T19:52:51.455Z,11.00
2018-05-16T19:55:25.426Z,11.00
2018-05-16T19:57:59.665Z,11.10
2018-05-16T20:00:34.090Z,11.30
2018-05-16T20:03:07.871Z,11.30
2018-05-16T20:05:41.992Z,11.40
2018-05-16T20:08:16.924Z,11.50
2018-05-16T20:10:52.872Z,11.50
2018-05-16T20:13:28.435Z,11.50
2018-05-16T20:16:03.574Z,11.60
2018-05-16T20:18:37.560Z,11.60
2018-05-16T20:21:15.463Z,11.60
2018-05-16T20:23:51.374Z,11.40
2018-05-16T20:26:25.115Z,11.40
2018-05-16T20:28:59.433Z,11.20
2018-05-16T20:31:34.051Z,11.20
2018-05-16T20:34:09.087Z,11.20
2018-05-16T20:36:43.849Z,11.20
2018-05-16T20:39:18.022Z,11.20
2018-05-16T20:41:52.360Z,11.20
2018-05-16T20:44:26.380Z,11.00
2018-05-16T20:47:01.503Z,10.90
2018-05-16T20:49:35.315Z,10.90
2018-05-16T20:52:10.430Z,10.80
2018-05-16T20:54:44.947Z,10.90
2018-05-16T20:57:21.115Z,10.80
2018-05-16T20:59:55.621Z,10.80
2018-05-16T21:02:29.540Z,10.80
2018-05-16T21:05:03.347Z,10.80
2018-05-16T21:07:37.272Z,10.70
2018-05-16T21:10:13.836Z,10.70
2018-05-16T21:12:47.861Z,10.70
2018-05-16T21:15:21.738Z,10.90
2018-05-16T21:17:56.178Z,10.90
2018-05-16T21:20:30.190Z,10.90
2018-05-16T21:23:04.172Z,10.90
2018-05-16T21:25:38.795Z,10.90
2018-05-16T21:28:13.371Z,10.90
2018-05-16T21:30:46.943Z,10.90
2018-05-16T21:33:21.541Z,10.80
2018-05-16T21:35:55.447Z,10.80
2018-05-16T21:38:29.791Z,10.80
2018-05-16T21:41:03.674Z,10.80
2018-05-16T21:43:38.334Z,10.90
2018-05-16T21:46:12.943Z,10.90
2018-05-16T21:48:47.756Z,10.90
2018-05-16T21:51:22.292Z,10.90
2018-05-16T21:53:56.076Z,10.90
2018-05-16T21:56:29.822Z,10.90
2018-05-16T21:59:04.396Z,11.00
2018-05-16T22:01:38.211Z,11.00
2018-05-16T22:04:12.736Z,11.10
2018-05-16T22:06:46.858Z,11.10
2018-05-16T22:09:21.977Z,11.20
2018-05-16T22:11:56.418Z,11.00
2018-05-16T22:14:30.432Z,11.00
2018-05-16T22:17:04.118Z,11.00
2018-05-16T22:19:39.093Z,11.10
2018-05-16T22:22:14.299Z,11.00
2018-05-16T22:24:48.187Z,11.00
2018-05-16T22:27:22.518Z,11.10
2018-05-16T22:29:56.704Z,11.10
2018-05-16T22:32:38.087Z,11.10
2018-05-16T22:35:18.238Z,11.20
2018-05-16T22:37:58.527Z,11.20
2018-05-16T22:40:38.051Z,11.20
2018-05-16T22:43:12.369Z,11.20
2018-05-16T22:45:52.407Z,11.30
2018-05-16T22:48:26.551Z,11.20
2018-05-16T22:51:01.371Z,11.20
2018-05-16T22:53:35.144Z,11.20
2018-05-16T22:56:09.495Z,11.30
2018-05-16T22:58:44.091Z,11.30
2018-05-16T23:01:18.532Z,11.20
2018-05-16T23:03:52.553Z,11.20
2018-05-16T23:06:26.347Z,11.20
2018-05-16T23:09:00.673Z,11.30
2018-05-16T23:11:34.443Z,11.30
2018-05-16T23:14:08.255Z,11.40
2018-05-16T23:16:42.987Z,11.40
2018-05-16T23:19:18.320Z,11.40
2018-05-16T23:21:52.031Z,11.40
2018-05-16T23:24:25.822Z,11.40
2018-05-16T23:27:00.176Z,11.40
2018-05-16T23:29:33.947Z,11.30
2018-05-16T23:32:08.674Z,11.40
2018-05-16T23:34:42.991Z,11.30
2018-05-16T23:37:17.545Z,11.40
2018-05-16T23:39:53.190Z,11.40
2018-05-16T23:42:26.754Z,11.40
2018-05-16T23:45:01.186Z,11.20
2018-05-16T23:47:34.787Z,11.20
2018-05-16T23:50:09.528Z,11.10
2018-05-16T23:52:43.331Z,11.10
2018-05-16T23:55:17.146Z,11.00
2018-05-16T23:57:51.738Z,11.10
